Time;durP1;ratioP1;P1;durP2;ratioP2;P2;SDS_P1;SDS_P2;PMS_P1;PMS_P2;Temp;Humidity;BMP_temperature;BMP_pressure;BME280_temperature;BME280_humidity;BME280_pressure;Samples;Min_cycle;Max_cycle;Signal;HPM_P1;HPM_P2
2023/10/13 00:01:20;;;;;;;225.40;56.10;;;14.90;99.90;;;;;;4898544;29;20419;-77
2023/10/13 00:03:46;;;;;;;243.52;57.97;;;15.60;99.90;;;;;;4891057;29;20452;-77
2023/10/13 00:06:12;;;;;;;233.10;55.50;;;14.90;99.90;;;;;;4883587;29;20766;-76
2023/10/13 00:08:39;;;;;;;189.10;52.53;;;14.80;99.90;;;;;;4884612;29;20579;-77
2023/10/13 00:11:11;;;;;;;169.80;49.42;;;14.90;99.90;;;;;;4894617;29;20433;-76
2023/10/13 00:13:50;;;;;;;212.13;53.80;;;15.00;99.90;;;;;;4879935;29;20769;-78
2023/10/13 00:16:21;;;;;;;214.55;53.90;;;14.90;99.90;;;;;;4879176;29;20445;-78
2023/10/13 00:18:48;;;;;;;160.93;48.83;;;15.20;99.90;;;;;;4895703;29;20429;-78
2023/10/13 00:21:33;;;;;;;190.10;51.10;;;15.00;99.90;;;;;;4880489;29;20518;-78
2023/10/13 00:24:05;;;;;;;164.68;47.65;;;15.20;99.90;;;;;;4897881;29;20423;-78
2023/10/13 00:26:35;;;;;;;140.00;44.70;;;15.10;99.90;;;;;;4853009;29;20420;-78
2023/10/13 00:29:09;;;;;;;131.65;44.38;;;15.20;99.90;;;;;;4880724;29;20777;-78
2023/10/13 00:31:42;;;;;;;152.60;46.20;;;15.10;99.90;;;;;;4854789;29;20420;-78
2023/10/13 00:34:15;;;;;;;144.45;44.88;;;15.10;99.90;;;;;;4893160;29;20419;-78
2023/10/13 00:37:44;;;;;;;131.70;43.80;;;15.30;99.90;;;;;;4893510;29;20533;-78
2023/10/13 00:39:40;;;;;;;108.43;40.60;;;15.40;99.90;;;;;;4891006;29;20444;-78
2023/10/13 00:42:17;;;;;;;122.47;42.35;;;15.60;99.90;;;;;;4880882;29;20515;-78
2023/10/13 00:44:48;;;;;;;101.25;39.05;;;15.70;99.90;;;;;;4895733;29;20454;-78
2023/10/13 00:47:48;;;;;;;113.70;40.33;;;15.50;99.90;;;;;;4876905;29;20457;-78
2023/10/13 00:50:11;;;;;;;97.38;38.60;;;15.70;99.90;;;;;;4883525;29;20774;-79
2023/10/13 00:52:41;;;;;;;104.05;39.05;;;15.80;99.90;;;;;;4891162;29;20505;-79
2023/10/13 00:55:09;;;;;;;94.07;36.45;;;15.70;99.90;;;;;;4896728;29;20776;-79
2023/10/13 00:57:36;;;;;;;85.80;36.38;;;15.60;99.90;;;;;;4874366;29;20524;-78
2023/10/13 01:00:17;;;;;;;91.40;35.92;;;15.60;99.90;;;;;;4874275;29;20424;-79
2023/10/13 01:02:43;;;;;;;89.53;34.08;;;15.80;99.90;;;;;;4867566;29;20420;-78
2023/10/13 01:05:19;;;;;;;88.38;34.30;;;15.80;99.90;;;;;;4898186;29;20911;-79
2023/10/13 01:07:50;;;;;;;79.47;34.37;;;15.90;99.90;;;;;;4896832;29;20423;-79
2023/10/13 01:10:16;;;;;;;70.40;32.57;;;15.70;99.90;;;;;;4881970;29;20424;-79
2023/10/13 01:12:43;;;;;;;83.13;33.55;;;16.00;99.90;;;;;;4890217;29;20443;-79
2023/10/13 01:15:12;;;;;;;78.40;32.97;;;15.80;99.90;;;;;;4879097;29;20424;-79
2023/10/13 01:17:38;;;;;;;80.32;32.72;;;16.20;99.90;;;;;;4889143;29;20978;-79
2023/10/13 01:20:06;;;;;;;77.47;32.00;;;15.80;99.90;;;;;;4892923;29;20535;-79
2023/10/13 01:22:32;;;;;;;74.00;31.33;;;16.00;99.90;;;;;;4894065;29;20432;-78
2023/10/13 01:25:12;;;;;;;72.15;29.98;;;16.30;99.90;;;;;;4894865;29;20439;-78
2023/10/13 01:27:40;;;;;;;69.93;29.57;;;15.90;99.90;;;;;;4888120;29;20422;-79
2023/10/13 01:30:10;;;;;;;67.53;29.33;;;16.20;99.90;;;;;;4868226;29;20447;-78
2023/10/13 01:32:40;;;;;;;60.92;27.45;;;15.90;99.90;;;;;;4888517;29;20420;-78
2023/10/13 01:35:07;;;;;;;59.77;27.47;;;16.10;99.90;;;;;;4879846;29;20503;-78
2023/10/13 01:37:33;;;;;;;62.13;28.40;;;16.40;99.90;;;;;;4867276;29;20942;-78
2023/10/13 01:39:59;;;;;;;63.73;28.37;;;16.00;99.90;;;;;;4892200;29;20453;-79
2023/10/13 01:42:25;;;;;;;54.83;26.40;;;16.20;99.90;;;;;;4878129;29;20432;-79
2023/10/13 01:44:51;;;;;;;53.75;25.33;;;16.20;99.90;;;;;;4867048;29;20885;-79
2023/10/13 01:47:17;;;;;;;53.33;25.77;;;16.10;99.90;;;;;;4903393;29;21010;-79
2023/10/13 01:49:46;;;;;;;49.67;24.67;;;17.10;99.90;;;;;;4888620;29;20789;-79
2023/10/13 01:52:15;;;;;;;49.87;24.73;;;16.00;99.90;;;;;;4881988;29;20565;-80
2023/10/13 01:54:51;;;;;;;46.30;23.67;;;16.40;99.90;;;;;;4881668;29;20430;-77
2023/10/13 01:57:17;;;;;;;39.97;22.88;;;16.40;99.90;;;;;;4880329;29;20450;-77
2023/10/13 01:59:47;;;;;;;44.60;23.37;;;16.40;99.90;;;;;;4875664;29;20418;-76
2023/10/13 02:02:14;;;;;;;45.47;23.10;;;16.30;99.90;;;;;;4887274;29;20432;-77
2023/10/13 02:04:56;;;;;;;41.17;22.73;;;16.10;99.90;;;;;;4878266;29;20416;-76
2023/10/13 02:07:29;;;;;;;47.70;23.92;;;16.10;99.90;;;;;;4865283;29;20424;-76
2023/10/13 02:09:58;;;;;;;50.97;25.05;;;16.20;99.90;;;;;;4895563;29;20433;-76
2023/10/13 02:12:42;;;;;;;51.38;24.67;;;16.00;99.90;;;;;;4895385;29;20434;-76
2023/10/13 02:15:22;;;;;;;49.67;24.93;;;16.40;99.90;;;;;;4891588;29;20419;-76
2023/10/13 02:17:51;;;;;;;46.40;23.42;;;16.20;99.90;;;;;;4899485;29;20436;-76
2023/10/13 02:20:30;;;;;;;46.78;24.08;;;16.20;99.90;;;;;;4892536;29;20494;-77
2023/10/13 02:22:56;;;;;;;47.72;25.33;;;16.20;99.90;;;;;;4876145;29;20442;-77
2023/10/13 02:25:42;;;;;;;45.15;25.77;;;16.20;99.90;;;;;;4890127;29;20890;-77
2023/10/13 02:28:13;;;;;;;53.80;28.27;;;16.20;99.90;;;;;;4884590;29;20802;-77
2023/10/13 02:30:48;;;;;;;54.47;26.80;;;16.30;99.90;;;;;;4888684;29;20916;-77
2023/10/13 02:33:20;;;;;;;60.47;28.80;;;16.20;99.90;;;;;;4865289;29;20909;-77
2023/10/13 02:35:55;;;;;;;62.55;29.20;;;16.40;99.90;;;;;;4895269;29;20411;-77
2023/10/13 02:41:18;;;;;;;63.15;30.23;;;16.40;99.90;;;;;;4877746;29;20430;-77
2023/10/13 02:43:44;;;;;;;59.03;29.20;;;16.20;99.90;;;;;;4895324;29;20423;-77
2023/10/13 02:46:10;;;;;;;72.18;31.48;;;16.20;99.90;;;;;;4894180;29;20473;-77
2023/10/13 02:48:42;;;;;;;66.88;31.13;;;16.40;99.90;;;;;;4891152;29;20455;-77
2023/10/13 02:51:15;;;;;;;65.95;31.13;;;16.50;99.90;;;;;;4881207;29;20427;-76
2023/10/13 02:53:50;;;;;;;74.93;31.83;;;16.40;99.90;;;;;;4883002;29;20455;-77
2023/10/13 02:56:22;;;;;;;69.28;31.73;;;16.40;99.90;;;;;;4889020;29;20435;-76
2023/10/13 02:58:53;;;;;;;68.63;32.33;;;16.40;99.90;;;;;;4882778;29;20531;-76
2023/10/13 03:01:20;;;;;;;64.07;31.30;;;16.40;99.90;;;;;;4879416;29;20913;-76
2023/10/13 03:03:58;;;;;;;62.88;31.40;;;16.30;99.90;;;;;;4874016;29;20441;-77
2023/10/13 03:06:32;;;;;;;61.20;30.40;;;16.70;99.90;;;;;;4893613;29;20423;-76
2023/10/13 03:09:11;;;;;;;58.80;28.90;;;16.40;99.90;;;;;;4894822;29;20435;-77
2023/10/13 03:11:39;;;;;;;47.70;25.63;;;16.40;99.90;;;;;;4884915;29;20936;-78
2023/10/13 03:14:07;;;;;;;51.90;26.02;;;16.40;99.90;;;;;;4896224;29;20426;-77
2023/10/13 03:16:32;;;;;;;41.30;22.73;;;16.40;99.90;;;;;;4895781;29;20435;-76
2023/10/13 03:18:58;;;;;;;45.20;23.43;;;16.50;99.90;;;;;;4893956;29;20786;-77
2023/10/13 03:21:31;;;;;;;41.13;21.52;;;16.30;99.90;;;;;;4875948;29;20778;-76
2023/10/13 03:24:04;;;;;;;38.78;21.83;;;16.10;99.90;;;;;;4866282;29;20442;-76
2023/10/13 03:26:34;;;;;;;32.58;19.38;;;16.30;99.90;;;;;;4865805;29;20999;-76
2023/10/13 03:29:03;;;;;;;35.90;20.52;;;16.40;99.90;;;;;;4865465;29;20419;-77
2023/10/13 03:31:29;;;;;;;38.97;21.48;;;16.60;99.90;;;;;;4873823;29;20458;-77
2023/10/13 03:33:59;;;;;;;41.45;22.02;;;16.00;99.90;;;;;;4883138;29;20437;-77
2023/10/13 03:39:11;;;;;;;44.42;22.73;;;16.40;99.90;;;;;;4887455;29;20415;-76
2023/10/13 03:41:39;;;;;;;49.92;24.08;;;16.40;99.90;;;;;;4880321;29;20428;-78
2023/10/13 03:44:09;;;;;;;44.47;23.30;;;16.30;99.90;;;;;;4901923;29;20432;-77
2023/10/13 03:46:48;;;;;;;43.90;24.48;;;16.40;99.90;;;;;;4865210;29;20435;-77
2023/10/13 03:49:29;;;;;;;46.78;24.02;;;15.10;99.90;;;;;;4861122;29;20422;-77
2023/10/13 03:52:13;;;;;;;39.10;22.77;;;16.10;99.90;;;;;;4867182;29;20439;-78
2023/10/13 03:54:47;;;;;;;42.67;22.77;;;16.40;99.90;;;;;;4864559;29;20438;-77
2023/10/13 03:57:50;;;;;;;43.65;23.23;;;16.30;99.90;;;;;;4882727;29;20935;-77
2023/10/13 04:00:23;;;;;;;44.17;22.30;;;16.40;99.90;;;;;;4902037;29;20415;-77
2023/10/13 04:03:03;;;;;;;42.22;22.23;;;16.40;99.90;;;;;;4898301;29;20408;-77
2023/10/13 04:30:01;;;;;;;35.03;18.38;;;16.20;99.90;;;;;;4911868;29;21209;-77
2023/10/13 04:32:32;;;;;;;38.70;19.45;;;16.20;99.90;;;;;;4894854;29;20433;-78
2023/10/13 04:35:17;;;;;;;34.88;19.55;;;16.30;99.90;;;;;;4904538;29;20503;-78
2023/10/13 04:38:00;;;;;;;39.65;20.20;;;16.20;99.90;;;;;;4918052;29;20435;-78
2023/10/13 04:40:28;;;;;;;43.50;20.95;;;16.40;99.90;;;;;;4916352;29;20431;-78
2023/10/13 04:42:57;;;;;;;43.60;21.80;;;16.40;99.90;;;;;;4885649;29;20548;-78
2023/10/13 04:48:13;;;;;;;48.25;21.45;;;16.30;99.90;;;;;;4882445;29;20486;-79
2023/10/13 04:50:45;;;;;;;47.72;22.08;;;16.40;99.90;;;;;;4869163;29;20911;-78
2023/10/13 04:59:36;;;;;;;50.13;20.58;;;13.70;99.90;;;;;;4877643;29;20933;-77
2023/10/13 05:05:21;;;;;;;43.05;20.33;;;15.90;99.90;;;;;;4882413;29;20781;-77
2023/10/13 05:47:48;;;;;;;21.48;11.90;;;16.50;99.90;;;;;;4882482;29;20445;-79
2023/10/13 06:29:07;;;;;;;12.65;9.20;;;16.20;99.90;;;;;;4892532;29;20440;-78
2023/10/13 06:31:45;;;;;;;14.70;9.98;;;16.00;99.90;;;;;;4876057;29;20425;-78
2023/10/13 06:34:15;;;;;;;12.45;8.55;;;16.00;99.90;;;;;;4868229;29;20508;-79
2023/10/13 06:36:42;;;;;;;13.07;8.93;;;16.30;99.90;;;;;;4887427;29;20779;-81
2023/10/13 06:41:53;;;;;;;12.40;8.65;;;16.20;99.90;;;;;;4894834;29;20415;-79
2023/10/13 06:44:22;;;;;;;12.40;8.03;;;16.20;99.90;;;;;;4861514;29;20433;-79
2023/10/13 06:46:49;;;;;;;9.98;7.40;;;16.10;99.90;;;;;;4862009;29;20429;-79
2023/10/13 06:49:18;;;;;;;12.52;8.15;;;16.10;99.90;;;;;;4896703;29;20429;-78
2023/10/13 06:51:46;;;;;;;10.65;8.00;;;16.20;99.90;;;;;;4890166;29;20491;-77
2023/10/13 06:54:19;;;;;;;10.10;6.75;;;16.30;99.90;;;;;;4878329;29;20913;-78
2023/10/13 06:56:46;;;;;;;9.60;6.18;;;16.60;99.90;;;;;;4895537;29;20430;-78
2023/10/13 06:59:13;;;;;;;10.73;6.15;;;16.60;99.90;;;;;;4894564;29;20432;-80
2023/10/13 07:01:40;;;;;;;10.52;5.88;;;16.40;99.90;;;;;;4881860;29;20429;-78
2023/10/13 07:04:14;;;;;;;11.88;6.22;;;16.80;99.90;;;;;;4872976;29;20497;-79
2023/10/13 07:06:46;;;;;;;11.70;6.05;;;16.50;99.90;;;;;;4856765;29;20480;-79
2023/10/13 07:12:06;;;;;;;10.75;5.88;;;16.70;99.90;;;;;;4872473;29;20429;-79
2023/10/13 07:14:40;;;;;;;10.43;5.50;;;16.60;99.90;;;;;;4891609;29;20436;-77
2023/10/13 07:17:08;;;;;;;9.57;5.53;;;16.40;99.90;;;;;;4864637;29;20496;-78
2023/10/13 07:19:34;;;;;;;9.98;5.38;;;16.40;99.90;;;;;;4877362;29;20458;-78
2023/10/13 07:22:19;;;;;;;12.80;5.63;;;16.40;99.90;;;;;;4892641;29;20424;-79
2023/10/13 07:24:48;;;;;;;9.30;5.38;;;16.50;99.90;;;;;;4872437;29;20416;-78
2023/10/13 07:27:24;;;;;;;10.55;6.00;;;16.40;99.90;;;;;;4910228;29;20499;-80
2023/10/13 07:30:14;;;;;;;14.15;6.20;;;16.60;99.90;;;;;;4895384;29;20427;-79
2023/10/13 07:32:45;;;;;;;12.45;6.45;;;14.80;99.90;;;;;;4880044;29;20443;-80
2023/10/13 07:35:15;;;;;;;13.57;5.87;;;16.40;99.90;;;;;;4884091;29;20424;-80
2023/10/13 07:37:42;;;;;;;11.87;6.07;;;16.30;99.90;;;;;;4893447;29;20979;-81
2023/10/13 07:43:03;;;;;;;13.85;6.65;;;16.20;99.90;;;;;;4894877;29;20415;-80
2023/10/13 07:45:36;;;;;;;15.73;7.18;;;16.30;99.90;;;;;;4891901;29;20516;-80
2023/10/13 07:48:12;;;;;;;15.73;7.25;;;16.40;99.90;;;;;;4875771;29;20442;-81
2023/10/13 07:50:40;;;;;;;13.73;6.95;;;16.30;99.90;;;;;;4862363;29;20424;-82
2023/10/13 07:53:23;;;;;;;14.13;7.28;;;16.20;99.90;;;;;;4856522;29;20415;-81
2023/10/13 07:55:55;;;;;;;15.35;7.15;;;16.30;99.90;;;;;;4869510;29;20775;-82
2023/10/13 07:58:27;;;;;;;15.63;7.65;;;16.40;99.90;;;;;;4864662;29;20797;-81
2023/10/13 08:01:17;;;;;;;15.85;7.50;;;16.20;99.90;;;;;;4886975;29;20959;-81
2023/10/13 08:03:45;;;;;;;16.17;7.30;;;17.30;99.90;;;;;;4888107;29;20474;-81
2023/10/13 08:08:38;;;;;;;18.02;7.45;;;16.20;99.90;;;;;;4884973;29;20448;-80
2023/10/13 08:11:11;;;;;;;16.10;7.90;;;16.40;99.90;;;;;;4885102;29;20435;-79
2023/10/13 08:13:46;;;;;;;17.98;7.72;;;16.70;99.90;;;;;;4896284;29;20511;-79
2023/10/13 08:16:22;;;;;;;18.33;8.18;;;16.50;99.90;;;;;;4891383;29;20992;-78
2023/10/13 08:18:52;;;;;;;17.65;7.93;;;16.50;99.90;;;;;;4895826;29;20421;-79
2023/10/13 08:21:31;;;;;;;15.18;7.47;;;16.50;99.90;;;;;;4909550;29;20745;-78
2023/10/13 08:23:59;;;;;;;17.73;7.72;;;16.40;99.90;;;;;;4880083;29;20439;-80
2023/10/13 08:34:59;;;;;;;18.17;8.05;;;16.50;99.90;;;;;;4894282;29;20477;-79
2023/10/13 08:56:15;;;;;;;18.25;8.32;;;17.10;99.90;;;;;;4887075;29;20475;-85
2023/10/13 09:09:58;;;;;;;17.00;9.15;;;17.60;99.90;;;;;;4873505;29;20428;-79
2023/10/13 09:14:57;;;;;;;18.65;9.48;;;17.20;99.90;;;;;;4884232;29;20428;-78
2023/10/13 09:20:22;;;;;;;18.67;9.33;;;17.30;99.90;;;;;;4897136;29;20419;-78
2023/10/13 09:25:37;;;;;;;17.25;8.57;;;17.60;99.90;;;;;;4880338;29;20509;-79
2023/10/13 09:28:14;;;;;;;17.27;8.93;;;17.50;99.90;;;;;;4895511;29;20483;-79
2023/10/13 09:30:58;;;;;;;17.20;8.50;;;15.50;99.90;;;;;;4891150;29;20429;-79
2023/10/13 09:33:50;;;;;;;15.43;7.93;;;17.80;99.90;;;;;;4895317;29;20426;-79
2023/10/13 09:36:17;;;;;;;15.07;7.85;;;17.90;99.90;;;;;;4892679;29;20444;-78
2023/10/13 09:39:12;;;;;;;14.10;7.90;;;18.00;99.90;;;;;;4863704;29;20476;-79
2023/10/13 09:41:32;;;;;;;16.45;7.50;;;18.20;99.90;;;;;;4888111;29;20886;-79
2023/10/13 09:43:58;;;;;;;15.47;7.50;;;18.20;99.90;;;;;;4877850;29;20855;-80
2023/10/13 09:46:30;;;;;;;19.80;7.50;;;18.10;99.90;;;;;;4890625;29;20420;-78
2023/10/13 09:49:05;;;;;;;12.00;6.90;;;18.00;99.90;;;;;;4879517;29;20472;-80
2023/10/13 09:51:34;;;;;;;13.70;7.10;;;18.20;99.90;;;;;;4891766;29;20464;-80
2023/10/13 09:54:26;;;;;;;13.05;6.70;;;18.10;99.90;;;;;;4911443;29;20423;-78
2023/10/13 09:57:01;;;;;;;16.30;7.10;;;18.40;99.90;;;;;;4892185;29;20514;-80
2023/10/13 09:59:35;;;;;;;15.98;7.15;;;18.30;99.90;;;;;;4897886;29;20978;-78
2023/10/13 10:02:09;;;;;;;14.85;6.97;;;18.30;99.90;;;;;;4871779;29;20984;-79
2023/10/13 10:04:51;;;;;;;15.20;6.45;;;18.50;99.90;;;;;;4879684;29;20419;-78
2023/10/13 10:07:28;;;;;;;16.80;6.90;;;18.60;99.90;;;;;;4874472;29;20429;-79
2023/10/13 10:10:01;;;;;;;14.40;6.25;;;18.80;99.90;;;;;;4881962;29;20426;-80
2023/10/13 10:12:47;;;;;;;13.50;6.50;;;18.60;99.90;;;;;;4898074;29;20904;-80
2023/10/13 10:15:33;;;;;;;14.18;6.40;;;18.70;99.90;;;;;;4896530;29;20551;-79
2023/10/13 10:18:00;;;;;;;14.18;6.47;;;17.80;99.90;;;;;;4873569;29;20437;-79
2023/10/13 10:20:41;;;;;;;15.30;6.23;;;18.80;99.90;;;;;;4880734;29;20437;-79
2023/10/13 10:23:12;;;;;;;17.15;6.35;;;18.80;99.90;;;;;;4893800;29;20438;-78
2023/10/13 10:25:44;;;;;;;14.63;6.18;;;19.30;99.90;;;;;;4889455;29;20447;-79
2023/10/13 10:28:15;;;;;;;12.90;6.32;;;18.80;99.90;;;;;;4878609;29;20432;-78
2023/10/13 10:30:42;;;;;;;13.38;6.25;;;18.60;99.90;;;;;;4878658;29;20453;-77
2023/10/13 10:33:13;;;;;;;15.80;6.20;;;18.80;99.90;;;;;;4890582;29;20448;-77
2023/10/13 10:35:44;;;;;;;18.58;6.50;;;18.90;99.90;;;;;;4879772;29;20779;-77
2023/10/13 10:38:24;;;;;;;19.85;6.50;;;19.00;99.90;;;;;;4891456;29;20439;-77
2023/10/13 10:40:58;;;;;;;15.20;6.38;;;19.00;99.90;;;;;;4874810;29;20778;-78
2023/10/13 10:43:30;;;;;;;16.42;6.50;;;19.00;99.90;;;;;;4877325;29;20448;-78
2023/10/13 10:46:02;;;;;;;14.88;6.10;;;19.20;99.90;;;;;;4895720;29;20411;-78
2023/10/13 10:48:42;;;;;;;16.90;5.80;;;19.20;99.90;;;;;;4881024;29;20472;-78
2023/10/13 10:51:21;;;;;;;19.08;6.18;;;19.20;99.90;;;;;;4885794;29;20437;-78
2023/10/13 10:53:52;;;;;;;15.63;6.25;;;19.30;99.90;;;;;;4871470;29;20418;-78
2023/10/13 10:56:25;;;;;;;15.48;6.53;;;19.20;99.90;;;;;;4880437;29;20526;-77
2023/10/13 10:58:55;;;;;;;14.07;6.00;;;19.70;99.90;;;;;;4878000;29;20416;-77
2023/10/13 11:01:22;;;;;;;17.13;5.95;;;19.30;99.90;;;;;;4896009;29;20531;-77
2023/10/13 11:03:57;;;;;;;15.55;5.82;;;20.00;99.90;;;;;;4865438;29;20421;-76
2023/10/13 11:06:25;;;;;;;16.02;6.03;;;19.60;99.90;;;;;;4888301;29;20436;-77
2023/10/13 11:09:03;;;;;;;21.27;6.13;;;19.10;99.90;;;;;;4882862;29;20480;-77
2023/10/13 11:11:35;;;;;;;14.48;6.20;;;19.70;99.90;;;;;;4873690;29;20420;-77
2023/10/13 11:14:13;;;;;;;16.27;5.93;;;19.70;99.90;;;;;;4885618;29;20559;-76
2023/10/13 11:16:50;;;;;;;13.90;6.05;;;19.50;99.90;;;;;;4889150;29;20483;-78
2023/10/13 11:19:20;;;;;;;18.98;6.07;;;19.60;99.90;;;;;;4870440;29;20444;-77
2023/10/13 11:21:49;;;;;;;15.68;5.72;;;19.50;99.90;;;;;;4886906;29;20434;-76
2023/10/13 11:24:17;;;;;;;18.13;6.10;;;19.50;99.90;;;;;;4883160;29;20464;-75
2023/10/13 11:26:50;;;;;;;16.45;6.50;;;19.60;99.90;;;;;;4871584;29;20440;-76
2023/10/13 11:29:30;;;;;;;11.75;5.47;;;19.30;99.90;;;;;;4882888;29;20474;-78
2023/10/13 11:31:59;;;;;;;18.02;6.32;;;19.50;99.90;;;;;;4904540;29;20429;-77
2023/10/13 11:34:25;;;;;;;18.10;6.68;;;19.30;99.90;;;;;;4895203;29;20470;-78
2023/10/13 11:36:52;;;;;;;13.40;6.18;;;19.50;99.90;;;;;;4892291;29;20451;-79
2023/10/13 11:39:25;;;;;;;15.32;6.03;;;19.30;99.90;;;;;;4893264;29;20422;-80
2023/10/13 11:41:55;;;;;;;16.70;6.40;;;19.30;99.90;;;;;;4887183;29;20467;-80
2023/10/13 11:51:44;;;;;;;17.57;6.10;;;19.30;99.90;;;;;;4886354;29;20427;-81
2023/10/13 11:54:15;;;;;;;17.15;6.53;;;19.30;99.90;;;;;;4897640;29;20474;-80
2023/10/13 11:56:41;;;;;;;15.38;6.35;;;19.20;99.90;;;;;;4887371;29;20433;-80
2023/10/13 11:59:15;;;;;;;16.58;6.15;;;19.50;99.90;;;;;;4870956;29;20921;-75
2023/10/13 12:04:40;;;;;;;17.88;6.38;;;19.40;99.90;;;;;;4887830;29;20435;-79
2023/10/13 12:12:22;;;;;;;20.67;6.90;;;19.40;99.90;;;;;;4888976;29;20479;-79
2023/10/13 12:14:56;;;;;;;15.02;6.55;;;19.80;99.90;;;;;;4884350;29;20440;-78
2023/10/13 12:17:34;;;;;;;16.77;6.03;;;19.40;99.90;;;;;;4894319;29;20439;-79
2023/10/13 12:20:04;;;;;;;16.75;6.53;;;19.50;99.90;;;;;;4902435;29;20478;-78
2023/10/13 12:22:39;;;;;;;14.38;6.20;;;19.60;99.90;;;;;;4880900;29;20431;-79
2023/10/13 12:27:57;;;;;;;19.88;6.65;;;19.50;99.90;;;;;;4891541;29;20474;-79
2023/10/13 12:33:10;;;;;;;14.85;6.53;;;19.40;99.90;;;;;;4893472;29;20430;-79
2023/10/13 12:36:03;;;;;;;19.95;7.65;;;19.60;99.90;;;;;;4870131;29;20433;-78
2023/10/13 12:52:31;;;;;;;20.98;7.78;;;18.90;99.90;;;;;;4892911;29;20432;-78
2023/10/13 12:57:23;;;;;;;20.50;7.77;;;19.40;99.90;;;;;;4880592;29;20444;-79
2023/10/13 12:59:53;;;;;;;16.23;7.68;;;18.90;99.90;;;;;;4888342;29;20426;-78
2023/10/13 13:02:24;;;;;;;19.97;8.37;;;18.90;99.90;;;;;;4862675;29;20589;-79
2023/10/13 13:05:11;;;;;;;23.58;7.95;;;18.90;99.90;;;;;;4880938;29;20429;-79
2023/10/13 13:07:46;;;;;;;19.67;8.18;;;18.90;99.90;;;;;;4889306;29;20797;-78
2023/10/13 13:10:13;;;;;;;19.85;8.38;;;18.80;99.90;;;;;;4888976;29;20817;-79
2023/10/13 13:12:40;;;;;;;19.52;8.20;;;18.80;99.90;;;;;;4886357;29;20921;-80
2023/10/13 13:15:08;;;;;;;19.13;7.82;;;18.70;99.90;;;;;;4865361;29;20425;-80
2023/10/13 13:17:38;;;;;;;23.65;8.35;;;18.60;99.90;;;;;;4870015;29;20455;-80
2023/10/13 13:20:12;;;;;;;21.02;7.93;;;18.50;99.90;;;;;;4909765;29;20496;-80
2023/10/13 13:22:40;;;;;;;17.63;8.03;;;18.80;99.90;;;;;;4881331;29;20434;-79
2023/10/13 13:25:08;;;;;;;17.70;8.23;;;18.70;99.90;;;;;;4874618;29;20427;-79
2023/10/13 13:27:34;;;;;;;17.55;8.23;;;18.60;99.90;;;;;;4886900;29;20431;-79
2023/10/13 13:30:00;;;;;;;20.45;8.57;;;18.40;99.90;;;;;;4861616;29;20432;-79
2023/10/13 13:32:28;;;;;;;21.17;8.88;;;18.60;99.90;;;;;;4889769;29;20426;-79
2023/10/13 13:34:58;;;;;;;17.48;8.23;;;18.60;99.90;;;;;;4866181;29;20416;-78
2023/10/13 13:37:27;;;;;;;18.63;8.52;;;18.40;99.90;;;;;;4873900;29;20788;-79
2023/10/13 13:39:53;;;;;;;26.10;8.77;;;18.50;99.90;;;;;;4896822;29;20423;-79
2023/10/13 13:42:20;;;;;;;17.95;8.55;;;18.60;99.90;;;;;;4891246;29;20430;-79
2023/10/13 13:44:48;;;;;;;23.23;8.85;;;18.50;99.90;;;;;;4878727;29;20479;-78
2023/10/13 13:47:15;;;;;;;17.00;8.13;;;18.70;99.90;;;;;;4870429;29;20433;-78
2023/10/13 13:49:46;;;;;;;19.55;8.30;;;18.80;99.90;;;;;;4893226;29;20411;-79
2023/10/13 13:52:17;;;;;;;17.92;8.75;;;16.60;99.90;;;;;;4884348;29;20989;-79
2023/10/13 13:54:44;;;;;;;19.27;8.30;;;18.60;99.90;;;;;;4879612;29;20424;-79
2023/10/13 13:57:09;;;;;;;15.55;7.97;;;18.40;99.90;;;;;;4883217;29;20516;-80
2023/10/13 13:59:36;;;;;;;23.35;9.02;;;18.40;99.90;;;;;;4893033;29;20923;-80
2023/10/13 14:02:18;;;;;;;18.52;8.13;;;18.40;99.90;;;;;;4874901;29;20435;-80
2023/10/13 14:04:46;;;;;;;19.25;8.38;;;16.40;99.90;;;;;;4873094;29;20458;-79
2023/10/13 14:07:14;;;;;;;18.25;7.95;;;18.50;99.90;;;;;;4886446;29;20438;-78
2023/10/13 14:09:43;;;;;;;18.08;7.60;;;18.50;99.90;;;;;;4888831;29;20423;-79
2023/10/13 14:14:56;;;;;;;20.13;8.20;;;18.50;99.90;;;;;;4874603;29;20436;-78
2023/10/13 14:17:35;;;;;;;19.52;8.15;;;18.60;99.90;;;;;;4893855;29;20463;-78
2023/10/13 14:20:09;;;;;;;19.35;8.10;;;18.80;99.90;;;;;;4886496;29;20427;-79
2023/10/13 14:22:37;;;;;;;23.25;8.65;;;18.80;99.90;;;;;;4882126;29;20477;-78
2023/10/13 14:25:09;;;;;;;19.42;8.18;;;18.70;99.90;;;;;;4892821;29;20430;-79
2023/10/13 14:27:35;;;;;;;15.98;8.75;;;18.80;99.90;;;;;;4890187;29;20422;-78
2023/10/13 14:30:04;;;;;;;18.10;7.93;;;18.90;99.90;;;;;;4885709;29;20433;-77
2023/10/13 14:32:30;;;;;;;19.23;8.07;;;18.80;99.90;;;;;;4893303;29;20415;-78
2023/10/13 14:34:56;;;;;;;18.70;7.85;;;18.60;99.90;;;;;;4865522;29;20770;-78
2023/10/13 14:37:30;;;;;;;19.75;7.78;;;18.60;99.90;;;;;;4863269;29;20526;-79
2023/10/13 14:39:57;;;;;;;19.17;7.72;;;18.70;99.90;;;;;;4882994;29;20941;-79
2023/10/13 14:42:25;;;;;;;20.30;7.82;;;18.60;99.90;;;;;;4885733;29;20406;-78
2023/10/13 14:44:55;;;;;;;15.07;7.18;;;18.70;99.90;;;;;;4892389;29;20946;-79
2023/10/13 14:47:24;;;;;;;16.92;7.65;;;18.70;99.90;;;;;;4889372;29;20419;-80
2023/10/13 14:49:55;;;;;;;14.48;7.53;;;18.70;99.90;;;;;;4878071;29;20432;-80
2023/10/13 14:52:23;;;;;;;18.83;7.68;;;18.70;99.90;;;;;;4874099;29;20779;-78
2023/10/13 14:54:54;;;;;;;17.13;7.68;;;18.70;99.90;;;;;;4879520;29;20535;-81
2023/10/13 14:57:24;;;;;;;21.05;7.63;;;18.70;99.90;;;;;;4887612;29;20464;-80
2023/10/13 14:59:54;;;;;;;20.70;7.72;;;18.70;99.90;;;;;;4866213;29;20422;-80
2023/10/13 15:02:20;;;;;;;14.95;7.22;;;18.90;99.90;;;;;;4882828;29;20410;-81
2023/10/13 15:04:49;;;;;;;18.67;7.90;;;16.80;99.90;;;;;;4871412;29;20830;-81
2023/10/13 15:07:17;;;;;;;20.65;8.23;;;18.40;99.90;;;;;;4883353;29;20422;-81
2023/10/13 15:09:43;;;;;;;19.85;8.32;;;18.40;99.90;;;;;;4878574;29;20449;-81
2023/10/13 15:12:15;;;;;;;24.35;8.82;;;18.20;99.90;;;;;;4906700;29;20494;-81
2023/10/13 15:14:43;;;;;;;18.33;9.10;;;18.30;99.90;;;;;;4880315;29;20483;-81
2023/10/13 15:17:10;;;;;;;18.93;8.90;;;18.30;99.90;;;;;;4876972;29;20440;-81
2023/10/13 15:19:38;;;;;;;20.65;9.02;;;18.50;99.90;;;;;;4865010;29;20433;-81
2023/10/13 15:22:12;;;;;;;18.98;8.95;;;18.20;99.90;;;;;;4865383;29;20429;-81
2023/10/13 15:24:59;;;;;;;19.70;9.10;;;18.30;99.90;;;;;;4867923;29;20780;-82
2023/10/13 15:27:29;;;;;;;16.90;9.38;;;18.00;99.90;;;;;;4887773;29;20464;-81
2023/10/13 15:30:43;;;;;;;23.77;9.73;;;20.10;99.90;;;;;;4864325;29;20427;-82
2023/10/13 15:33:12;;;;;;;21.73;9.82;;;18.20;99.90;;;;;;4875603;29;20418;-80
2023/10/13 15:35:42;;;;;;;22.98;10.10;;;18.80;99.90;;;;;;4878295;29;20950;-81
2023/10/13 15:38:12;;;;;;;19.73;10.30;;;17.90;99.90;;;;;;4895286;29;20862;-82
2023/10/13 15:40:44;;;;;;;20.33;10.70;;;17.80;99.90;;;;;;4889081;29;20823;-82
2023/10/13 15:43:12;;;;;;;20.48;10.45;;;17.80;99.90;;;;;;4865516;29;20464;-83
2023/10/13 15:45:42;;;;;;;21.25;10.43;;;18.00;99.90;;;;;;4880033;29;20473;-81
2023/10/13 15:48:11;;;;;;;23.35;10.52;;;17.80;99.90;;;;;;4895735;29;20419;-79
2023/10/13 15:50:41;;;;;;;28.08;11.23;;;17.70;99.90;;;;;;4884180;29;20437;-79
2023/10/13 15:53:07;;;;;;;23.65;11.32;;;17.70;99.90;;;;;;4866860;29;20462;-83
2023/10/13 15:55:37;;;;;;;24.70;11.17;;;18.00;99.90;;;;;;4889561;29;20514;-84
2023/10/13 15:58:07;;;;;;;22.23;10.63;;;17.60;99.90;;;;;;4866425;29;20441;-84
2023/10/13 16:00:37;;;;;;;22.52;11.18;;;17.90;99.90;;;;;;4855073;29;20548;-86
2023/10/13 16:03:10;;;;;;;23.80;11.20;;;17.90;99.90;;;;;;4896975;29;20418;-83
2023/10/13 16:05:39;;;;;;;20.63;10.10;;;17.90;99.90;;;;;;4879245;29;20444;-83
2023/10/13 16:08:10;;;;;;;17.90;9.63;;;18.10;99.90;;;;;;4893781;29;20423;-80
2023/10/13 16:10:37;;;;;;;24.20;10.38;;;18.10;99.90;;;;;;4875757;29;20515;-80
2023/10/13 16:13:05;;;;;;;20.45;9.38;;;17.80;99.90;;;;;;4874913;29;20769;-80
2023/10/13 16:15:30;;;;;;;16.70;9.20;;;17.90;99.90;;;;;;4862366;29;20439;-80
2023/10/13 16:17:56;;;;;;;18.73;9.40;;;17.80;99.90;;;;;;4887133;29;20923;-84
2023/10/13 16:20:24;;;;;;;24.85;9.00;;;17.80;99.90;;;;;;4880370;29;20878;-81
2023/10/13 16:22:50;;;;;;;15.40;7.80;;;17.90;99.90;;;;;;4895551;29;20425;-82
2023/10/13 16:25:21;;;;;;;17.70;8.60;;;18.10;99.90;;;;;;4866754;29;20420;-79
2023/10/13 16:27:49;;;;;;;16.13;8.05;;;17.80;99.90;;;;;;4868102;29;20481;-79
2023/10/13 16:30:15;;;;;;;15.82;7.95;;;17.80;99.90;;;;;;4866133;29;20447;-80
2023/10/13 16:32:45;;;;;;;13.40;7.40;;;17.70;99.90;;;;;;4874907;29;20430;-80
2023/10/13 16:35:17;;;;;;;15.10;7.30;;;18.00;99.90;;;;;;4857519;29;20501;-82